Historical Data

TheSutherlands

Weather at Humberside Airport

Current Weather from Humberside Airport

The information displayed on this page is from the METAR reports produced by Humberside Airport. Note that there are times when these are not generated.

Weather Report

Coded Weather Report: 2019/02/22 17:50 EGNJ 221750Z 13005KT 9999 FEW040 11/07 Q1034

Report issued: 2019/02/22 at 17:50 UTC

Wind: light breeze from the southeast (130 degrees) at 5 knots (6 mph, 9 kph, Force 2)
Visibility: 10km or more
Cloud: a few clouds at 4000 feet
Temperature: 11 C
Dewpoint: 7 C
Humidity: 76%
Pressure: 1034 hPa